createdAt,value
2023-02-11T00:02:54.514Z,-5.00
2023-02-11T00:06:55.694Z,-5.10
2023-02-11T00:10:56.714Z,-5.10
2023-02-11T00:14:57.006Z,-5.10
2023-02-11T00:19:02.565Z,-5.10
2023-02-11T00:23:02.973Z,-5.10
2023-02-11T00:27:03.535Z,-5.20
2023-02-11T00:31:04.395Z,-5.20
2023-02-11T00:35:08.576Z,-5.20
2023-02-11T00:39:10.762Z,-5.20
2023-02-11T00:43:11.340Z,-5.20
2023-02-11T00:47:11.566Z,-5.20
2023-02-11T00:51:15.160Z,-5.20
2023-02-11T00:55:15.868Z,-5.20
2023-02-11T00:59:16.455Z,-5.20
2023-02-11T01:03:18.415Z,-5.30
2023-02-11T01:07:22.577Z,-5.30
2023-02-11T01:11:24.952Z,-5.20
2023-02-11T01:15:27.240Z,-5.30
2023-02-11T01:19:27.819Z,-5.20
2023-02-11T01:23:30.981Z,-5.20
2023-02-11T01:27:31.297Z,-5.20
2023-02-11T01:31:34.071Z,-5.20
2023-02-11T01:35:34.508Z,-5.20
2023-02-11T01:39:40.102Z,-5.30
2023-02-11T01:43:44.472Z,-5.40
2023-02-11T01:47:45.480Z,-5.30
2023-02-11T01:51:51.755Z,-5.30
2023-02-11T01:56:08.842Z,-5.30
2023-02-11T02:00:17.273Z,-5.20
2023-02-11T02:04:22.619Z,-5.20
2023-02-11T02:08:32.742Z,-5.20
2023-02-11T02:12:39.001Z,-5.10
2023-02-11T02:16:41.048Z,-5.10
2023-02-11T02:21:32.722Z,-5.00
2023-02-11T02:26:44.663Z,-4.90
2023-02-11T02:31:30.586Z,-4.90
2023-02-11T02:35:45.851Z,-4.80
2023-02-11T02:39:52.721Z,-4.70
2023-02-11T02:43:55.737Z,-4.70
2023-02-11T02:47:56.662Z,-4.60
2023-02-11T02:52:28.821Z,-4.60
2023-02-11T02:56:42.718Z,-4.60
2023-02-11T03:00:57.943Z,-4.70
2023-02-11T03:05:09.905Z,-4.60
2023-02-11T03:09:22.626Z,-4.60
2023-02-11T03:13:29.461Z,-4.50
2023-02-11T03:17:34.678Z,-4.50
2023-02-11T03:21:39.263Z,-4.50
2023-02-11T03:25:54.599Z,-4.50
2023-02-11T03:30:04.553Z,-4.40
2023-02-11T03:34:15.791Z,-4.30
2023-02-11T03:38:24.456Z,-4.20
2023-02-11T03:42:35.293Z,-4.10
2023-02-11T03:46:42.241Z,-4.10
2023-02-11T03:50:46.282Z,-4.10
2023-02-11T03:54:49.760Z,-4.00
2023-02-11T03:58:53.017Z,-4.00
2023-02-11T04:02:53.410Z,-3.90
2023-02-11T04:06:53.743Z,-3.90
2023-02-11T04:10:54.094Z,-3.90
2023-02-11T04:14:57.604Z,-3.90
2023-02-11T04:18:58.045Z,-3.90
2023-02-11T04:22:58.507Z,-3.90
2023-02-11T04:26:58.904Z,-4.00
2023-02-11T04:31:02.138Z,-4.00
2023-02-11T04:35:03.016Z,-3.90
2023-02-11T04:39:03.634Z,-3.90
2023-02-11T04:43:04.492Z,-4.00
2023-02-11T04:47:08.124Z,-4.00
2023-02-11T04:51:09.282Z,-4.00
2023-02-11T04:55:11.394Z,-4.00
2023-02-11T04:59:13.414Z,-3.90
2023-02-11T05:03:16.954Z,-3.90
2023-02-11T05:07:17.455Z,-3.90
2023-02-11T05:11:21.972Z,-3.80
2023-02-11T05:15:22.477Z,-3.60
2023-02-11T05:19:25.593Z,-3.40
2023-02-11T05:23:26.126Z,-3.20
2023-02-11T05:27:26.412Z,-3.00
2023-02-11T05:31:27.560Z,-2.90
2023-02-11T05:35:31.002Z,-2.70
2023-02-11T05:39:31.528Z,-2.50
2023-02-11T05:43:32.001Z,-2.50
2023-02-11T05:47:32.502Z,-2.40
2023-02-11T05:51:35.466Z,-2.40
2023-02-11T05:55:36.597Z,-2.40
2023-02-11T05:59:37.510Z,-2.40
2023-02-11T06:03:38.163Z,-2.40
2023-02-11T06:07:41.239Z,-2.40
2023-02-11T06:11:42.182Z,-2.40
2023-02-11T06:15:42.842Z,-2.30
2023-02-11T06:19:43.143Z,-2.30
2023-02-11T06:23:46.230Z,-2.30
2023-02-11T06:27:46.816Z,-2.30
2023-02-11T06:31:47.571Z,-2.40
2023-02-11T06:35:48.514Z,-2.30
2023-02-11T06:39:52.277Z,-2.20
2023-02-11T06:43:52.848Z,-2.20
2023-02-11T06:47:55.619Z,-2.30
2023-02-11T06:51:56.285Z,-2.30
2023-02-11T06:55:59.565Z,-2.20
2023-02-11T06:59:59.872Z,-2.10
2023-02-11T07:04:00.368Z,-2.00
2023-02-11T07:08:00.846Z,-1.90
2023-02-11T07:12:04.056Z,-1.80
2023-02-11T07:16:10.606Z,-1.70
2023-02-11T07:20:12.633Z,-1.60
2023-02-11T07:24:14.084Z,-1.60
2023-02-11T07:28:17.371Z,-1.50
2023-02-11T07:32:18.215Z,-1.50
2023-02-11T07:36:20.098Z,-1.40
2023-02-11T07:40:20.867Z,-1.30
2023-02-11T07:44:24.333Z,-1.30
2023-02-11T07:48:27.289Z,-1.10
2023-02-11T07:52:27.957Z,-0.80
2023-02-11T07:56:29.449Z,-0.30
2023-02-11T08:00:32.702Z,0.40
2023-02-11T08:04:33.243Z,1.00
2023-02-11T08:08:33.710Z,1.20
2023-02-11T08:12:34.416Z,1.10
2023-02-11T08:16:40.849Z,1.10
2023-02-11T08:20:42.112Z,1.20
2023-02-11T08:24:42.946Z,1.10
2023-02-11T08:28:46.697Z,1.20
2023-02-11T08:32:49.971Z,1.20
2023-02-11T08:36:51.479Z,1.30
2023-02-11T08:40:54.192Z,1.50
2023-02-11T08:44:54.913Z,1.50
2023-02-11T08:48:58.423Z,1.70
2023-02-11T08:52:58.661Z,1.70
2023-02-11T08:56:59.575Z,1.90
2023-02-11T09:00:59.885Z,1.90
2023-02-11T09:05:03.447Z,2.10
2023-02-11T09:09:04.740Z,2.20
2023-02-11T09:13:05.268Z,2.40
2023-02-11T09:17:05.714Z,2.70
2023-02-11T09:21:12.445Z,2.80
2023-02-11T09:25:13.772Z,3.00
2023-02-11T09:29:14.191Z,3.20
2023-02-11T09:33:14.509Z,3.50
2023-02-11T09:37:17.504Z,3.60
2023-02-11T09:41:42.404Z,3.80
2023-02-11T09:45:44.250Z,4.00
2023-02-11T09:49:53.022Z,4.20
2023-02-11T09:54:07.117Z,4.40
2023-02-11T09:58:19.059Z,4.50
2023-02-11T10:02:29.355Z,4.50
2023-02-11T10:06:50.846Z,4.50
2023-02-11T10:11:01.963Z,4.40
2023-02-11T10:15:17.921Z,4.20
2023-02-11T10:19:43.614Z,4.10
2023-02-11T10:23:52.212Z,4.10
2023-02-11T10:27:59.447Z,4.10
2023-02-11T10:32:02.593Z,4.30
2023-02-11T10:36:03.441Z,4.40
2023-02-11T10:40:04.125Z,4.40
2023-02-11T10:44:10.839Z,4.40
2023-02-11T10:48:43.774Z,4.50
2023-02-11T10:52:44.607Z,4.50
2023-02-11T10:56:52.354Z,4.40
2023-02-11T11:00:59.507Z,4.30
2023-02-11T11:05:03.000Z,4.30
2023-02-11T11:09:04.779Z,4.40
2023-02-11T11:13:07.622Z,4.50
2023-02-11T11:17:22.069Z,4.50
2023-02-11T11:21:27.556Z,4.70
2023-02-11T11:25:31.555Z,4.70
2023-02-11T11:29:38.681Z,4.70
2023-02-11T11:33:47.134Z,4.80
2023-02-11T11:37:48.264Z,4.70
2023-02-11T11:41:59.660Z,4.80
2023-02-11T11:46:06.331Z,5.10
2023-02-11T11:50:35.205Z,5.30
2023-02-11T11:54:38.056Z,5.40
2023-02-11T11:58:38.825Z,5.50
2023-02-11T12:03:21.436Z,5.50
2023-02-11T12:07:41.699Z,5.50
2023-02-11T12:12:01.656Z,5.40
2023-02-11T12:16:20.431Z,5.20
2023-02-11T12:20:38.117Z,5.20
2023-02-11T12:25:05.300Z,5.60
2023-02-11T12:29:21.624Z,5.80
2023-02-11T12:33:42.298Z,6.00
2023-02-11T12:38:16.145Z,6.10
2023-02-11T12:43:02.748Z,6.40
2023-02-11T12:47:22.036Z,6.70
2023-02-11T12:51:40.357Z,6.50
2023-02-11T12:55:46.324Z,6.20
2023-02-11T13:00:00.622Z,6.00
2023-02-11T13:04:13.603Z,5.90
2023-02-11T13:08:20.843Z,5.70
2023-02-11T13:12:34.510Z,5.50
2023-02-11T13:16:46.113Z,5.60
2023-02-11T13:20:54.699Z,5.50
2023-02-11T13:25:06.429Z,5.70
2023-02-11T13:29:27.920Z,5.80
2023-02-11T13:33:43.070Z,6.00
2023-02-11T13:37:51.146Z,6.10
2023-02-11T13:41:52.959Z,6.00
2023-02-11T13:46:00.579Z,6.00
2023-02-11T13:50:10.767Z,6.00
2023-02-11T13:54:22.195Z,5.90
2023-02-11T13:58:40.217Z,6.00
2023-02-11T14:02:53.577Z,6.10
2023-02-11T14:07:46.744Z,5.90
2023-02-11T14:11:55.507Z,5.70
2023-02-11T14:16:10.860Z,5.70
2023-02-11T14:20:39.838Z,5.70
2023-02-11T14:24:58.423Z,5.50
2023-02-11T14:29:14.225Z,5.50
2023-02-11T14:34:00.289Z,5.40
2023-02-11T14:38:12.926Z,5.20
2023-02-11T14:42:22.732Z,5.10
2023-02-11T14:46:27.856Z,5.00
2023-02-11T14:50:35.269Z,5.00
2023-02-11T14:54:38.264Z,4.90
2023-02-11T14:58:48.803Z,4.80
2023-02-11T15:02:49.863Z,4.80
2023-02-11T15:06:52.454Z,4.80
2023-02-11T15:10:53.379Z,4.80
2023-02-11T15:15:01.228Z,4.70
2023-02-11T15:19:07.642Z,4.70
2023-02-11T15:23:20.615Z,4.80
2023-02-11T15:27:22.868Z,4.70
2023-02-11T15:31:29.880Z,4.60
2023-02-11T15:35:35.237Z,4.70
2023-02-11T15:39:41.182Z,4.70
2023-02-11T15:43:46.819Z,4.70
2023-02-11T15:47:57.327Z,4.70
2023-02-11T15:52:01.284Z,4.60
2023-02-11T15:56:16.404Z,4.60
2023-02-11T16:00:22.180Z,4.60
2023-02-11T16:04:29.624Z,4.50
2023-02-11T16:08:34.727Z,4.40
2023-02-11T16:12:35.360Z,4.40
2023-02-11T16:16:38.338Z,4.40
2023-02-11T16:20:43.839Z,4.30
2023-02-11T16:24:45.272Z,4.30
2023-02-11T16:28:45.750Z,4.30
2023-02-11T16:32:46.568Z,4.30
2023-02-11T16:36:51.576Z,4.30
2023-02-11T16:40:52.249Z,4.30
2023-02-11T16:44:53.014Z,4.20
2023-02-11T16:48:54.073Z,4.10
2023-02-11T16:52:58.394Z,4.10
2023-02-11T16:56:59.767Z,4.10
2023-02-11T17:01:00.851Z,4.00
2023-02-11T17:05:05.922Z,4.00
2023-02-11T17:09:09.065Z,4.00
2023-02-11T17:13:10.036Z,4.00
2023-02-11T17:17:12.190Z,4.00
2023-02-11T17:21:13.066Z,4.00
2023-02-11T17:25:16.226Z,4.00
2023-02-11T17:29:22.115Z,4.00
2023-02-11T17:33:22.563Z,4.10
2023-02-11T17:37:22.977Z,4.10
2023-02-11T17:41:26.676Z,4.00
2023-02-11T17:45:26.924Z,4.00
2023-02-11T17:49:27.795Z,3.90
2023-02-11T17:53:28.588Z,3.80
2023-02-11T17:57:31.911Z,3.70
2023-02-11T18:01:34.537Z,3.60
2023-02-11T18:05:38.092Z,3.60
2023-02-11T18:09:41.936Z,3.50
2023-02-11T18:13:45.216Z,3.40
2023-02-11T18:17:46.299Z,3.40
2023-02-11T18:21:49.078Z,3.40
2023-02-11T18:25:50.301Z,3.30
2023-02-11T18:29:53.829Z,3.40
2023-02-11T18:33:55.512Z,3.40
2023-02-11T18:37:56.278Z,3.40
2023-02-11T18:41:59.833Z,3.50
2023-02-11T18:46:04.410Z,3.50
2023-02-11T18:50:05.146Z,3.60
2023-02-11T18:54:05.572Z,3.60
2023-02-11T18:58:05.978Z,3.70
2023-02-11T19:02:09.897Z,3.70
2023-02-11T19:06:16.086Z,3.70
2023-02-11T19:10:16.559Z,3.80
2023-02-11T19:14:18.398Z,3.80
2023-02-11T19:18:21.871Z,3.80
2023-02-11T19:22:22.625Z,3.80
2023-02-11T19:26:27.182Z,3.70
2023-02-11T19:30:27.700Z,3.70
2023-02-11T19:34:30.977Z,3.80
2023-02-11T19:38:31.851Z,3.80
2023-02-11T19:42:32.258Z,3.80
2023-02-11T19:46:38.917Z,3.80
2023-02-11T19:50:43.808Z,3.80
2023-02-11T19:54:44.225Z,3.80
2023-02-11T19:58:46.159Z,3.80
2023-02-11T20:02:47.236Z,3.90
2023-02-11T20:06:51.016Z,3.90
2023-02-11T20:10:51.431Z,3.90
2023-02-11T20:14:51.871Z,3.90
2023-02-11T20:18:54.249Z,3.90
2023-02-11T20:22:58.737Z,3.80
2023-02-11T20:26:59.209Z,3.80
2023-02-11T20:31:00.082Z,3.80
2023-02-11T20:35:00.812Z,3.80
2023-02-11T20:39:05.999Z,3.70
2023-02-11T20:43:06.749Z,3.70
2023-02-11T20:47:07.674Z,3.70
2023-02-11T20:51:10.751Z,3.80
2023-02-11T20:55:14.272Z,3.70
2023-02-11T20:59:16.994Z,3.60
2023-02-11T21:03:17.796Z,3.60
2023-02-11T21:07:18.160Z,3.70
2023-02-11T21:11:21.336Z,3.70
2023-02-11T21:15:24.252Z,3.80
2023-02-11T21:19:24.889Z,3.70
2023-02-11T21:23:25.884Z,3.80
2023-02-11T21:27:32.431Z,3.70
2023-02-11T21:31:36.566Z,3.80
2023-02-11T21:35:37.829Z,3.80
2023-02-11T21:39:38.385Z,3.80
2023-02-11T21:43:41.958Z,3.80
2023-02-11T21:47:42.695Z,3.80
2023-02-11T21:51:43.195Z,3.80
2023-02-11T21:55:44.512Z,3.80
2023-02-11T21:59:48.981Z,3.80
2023-02-11T22:03:50.763Z,3.80
2023-02-11T22:07:51.651Z,3.70
2023-02-11T22:11:53.150Z,3.80
2023-02-11T22:16:06.040Z,3.70
2023-02-11T22:20:07.720Z,3.60
2023-02-11T22:24:09.936Z,3.60
2023-02-11T22:28:10.240Z,3.60
2023-02-11T22:32:14.137Z,3.60
2023-02-11T22:36:20.703Z,3.60
2023-02-11T22:40:21.490Z,3.70
2023-02-11T22:44:22.389Z,3.70
2023-02-11T22:48:25.794Z,3.70
2023-02-11T22:52:26.266Z,3.70
2023-02-11T22:56:28.123Z,3.70
2023-02-11T23:00:33.905Z,3.70
2023-02-11T23:04:37.114Z,3.70
2023-02-11T23:08:38.409Z,3.70
2023-02-11T23:12:38.819Z,3.60
2023-02-11T23:16:39.365Z,3.50
2023-02-11T23:20:46.418Z,3.70
2023-02-11T23:24:46.873Z,3.60
2023-02-11T23:28:48.398Z,3.50
2023-02-11T23:32:49.160Z,3.50
2023-02-11T23:36:52.476Z,3.50
2023-02-11T23:40:52.996Z,3.60
2023-02-11T23:44:53.656Z,3.60
2023-02-11T23:48:55.535Z,3.60
2023-02-11T23:52:59.245Z,3.70
2023-02-11T23:56:59.541Z,3.60
